Time;durP1;ratioP1;P1;durP2;ratioP2;P2;SDS_P1;SDS_P2;PMS_P1;PMS_P2;Temp;Humidity;BMP_temperature;BMP_pressure;BME280_temperature;BME280_humidity;BME280_pressure;Samples;Min_cycle;Max_cycle;Signal;HPM_P1;HPM_P2
2022/01/26 00:00:18;;;;;;;86.00;33.38;;;3.20;99.90;;;;;;2131986;67;20160;-76
2022/01/26 00:06:06;;;;;;;83.50;32.85;;;3.20;99.90;;;;;;2140227;66;20595;-77
2022/01/26 00:08:48;;;;;;;87.68;33.10;;;3.20;99.90;;;;;;2144744;66;20282;-77
2022/01/26 00:11:31;;;;;;;80.00;33.17;;;3.20;99.90;;;;;;2155192;66;20273;-77
2022/01/26 00:14:15;;;;;;;83.13;32.38;;;3.20;99.90;;;;;;2137749;66;20332;-77
2022/01/26 00:17:01;;;;;;;80.40;33.60;;;3.20;99.90;;;;;;2137039;66;20248;-76
2022/01/26 00:22:42;;;;;;;81.07;34.80;;;3.10;99.90;;;;;;2119488;67;20180;-77
2022/01/26 00:28:32;;;;;;;85.03;34.30;;;3.10;99.90;;;;;;2114329;67;20201;-76
2022/01/26 00:32:56;;;;;;;76.28;32.38;;;3.20;99.90;;;;;;2120607;67;20787;-78
2022/01/26 00:40:41;;;;;;;87.53;35.65;;;3.10;99.90;;;;;;2134550;67;20197;-76
2022/01/26 00:43:38;;;;;;;78.82;30.75;;;3.10;99.90;;;;;;2137617;67;20164;-76
2022/01/26 00:46:20;;;;;;;82.80;32.60;;;3.10;99.90;;;;;;2129372;67;20983;-77
2022/01/26 00:49:02;;;;;;;81.05;31.63;;;3.10;99.90;;;;;;2116097;67;20289;-76
2022/01/26 00:51:44;;;;;;;74.30;30.63;;;3.10;99.90;;;;;;2132852;67;20230;-78
2022/01/26 00:54:27;;;;;;;76.90;31.25;;;3.00;99.90;;;;;;2127687;67;20168;-77
2022/01/26 00:57:09;;;;;;;79.07;32.15;;;3.00;99.90;;;;;;2131274;67;20265;-78
2022/01/26 00:59:51;;;;;;;74.45;32.70;;;3.10;99.90;;;;;;2128263;67;20598;-78
2022/01/26 01:02:33;;;;;;;76.75;32.03;;;3.10;99.90;;;;;;2124813;67;20331;-80
2022/01/26 01:05:22;;;;;;;85.32;35.67;;;3.10;99.90;;;;;;2128451;67;20187;-77
2022/01/26 01:08:09;;;;;;;72.55;32.92;;;3.10;99.90;;;;;;2120195;67;20403;-78
2022/01/26 01:11:11;;;;;;;84.22;34.25;;;3.10;99.90;;;;;;2109901;67;20357;-79
2022/01/26 01:13:54;;;;;;;82.70;33.40;;;3.10;99.90;;;;;;2108955;67;20219;-77
2022/01/26 01:16:36;;;;;;;82.65;30.50;;;3.10;99.90;;;;;;2100696;67;20373;-77
2022/01/26 01:28:24;;;;;;;79.95;32.88;;;3.00;99.90;;;;;;2114805;67;20303;-79
2022/01/26 01:31:19;;;;;;;75.10;32.38;;;3.10;99.90;;;;;;2124802;67;21514;-78
2022/01/26 01:34:01;;;;;;;80.22;32.10;;;3.10;99.90;;;;;;2126923;67;20172;-76
2022/01/26 01:36:48;;;;;;;76.22;31.60;;;3.10;99.90;;;;;;2131982;67;20204;-77
2022/01/26 01:39:30;;;;;;;77.63;32.08;;;3.00;99.90;;;;;;2119478;67;20785;-76
2022/01/26 01:42:12;;;;;;;80.70;31.20;;;3.00;99.90;;;;;;2117682;67;20209;-77
2022/01/26 01:44:53;;;;;;;78.60;30.60;;;3.10;99.90;;;;;;2117441;67;20650;-77
2022/01/26 01:47:36;;;;;;;76.82;31.33;;;3.00;99.90;;;;;;2104130;67;20211;-76
2022/01/26 01:50:17;;;;;;;79.38;32.28;;;3.00;99.90;;;;;;2097013;68;20340;-74
2022/01/26 01:53:02;;;;;;;73.00;29.83;;;3.40;99.90;;;;;;2090012;68;20291;-77
2022/01/26 01:55:51;;;;;;;80.60;30.92;;;3.00;99.90;;;;;;2096758;68;20846;-78
2022/01/26 01:58:33;;;;;;;78.75;32.03;;;3.00;99.90;;;;;;2094607;67;20173;-76
2022/01/26 02:01:18;;;;;;;57.85;26.65;;;3.10;99.90;;;;;;2098702;67;20736;-77
2022/01/26 02:04:00;;;;;;;77.72;29.08;;;3.00;99.90;;;;;;2117661;67;20248;-77
2022/01/26 02:06:44;;;;;;;71.32;28.52;;;3.00;99.90;;;;;;2119247;67;20251;-77
2022/01/26 02:09:29;;;;;;;72.45;29.80;;;3.00;99.90;;;;;;2132008;67;20258;-76
2022/01/26 02:12:18;;;;;;;80.13;31.55;;;3.00;99.90;;;;;;2131358;67;20320;-77
2022/01/26 02:15:12;;;;;;;72.38;31.00;;;3.00;99.90;;;;;;2133856;66;20336;-77
2022/01/26 02:56:31;;;;;;;78.97;32.50;;;3.00;99.90;;;;;;2122345;67;20673;-77
2022/01/26 03:02:01;;;;;;;79.30;34.03;;;3.00;99.90;;;;;;2125513;67;20746;-77
2022/01/26 03:04:48;;;;;;;80.80;33.00;;;3.00;99.90;;;;;;2134747;66;20324;-77
2022/01/26 03:07:44;;;;;;;84.85;33.28;;;3.00;99.90;;;;;;2139641;66;20325;-77
2022/01/26 03:13:16;;;;;;;70.35;31.55;;;3.00;99.90;;;;;;2125124;67;20722;-77
2022/01/26 03:16:05;;;;;;;78.20;32.45;;;3.00;99.90;;;;;;2116480;67;20330;-77
2022/01/26 03:21:40;;;;;;;84.65;33.70;;;2.90;99.90;;;;;;2117641;67;20266;-78
2022/01/26 03:30:46;;;;;;;75.93;31.33;;;2.90;99.90;;;;;;2107393;67;20390;-76
2022/01/26 03:36:37;;;;;;;74.28;31.45;;;2.90;99.90;;;;;;2096436;68;20744;-78
2022/01/26 03:39:23;;;;;;;80.30;33.08;;;3.00;99.90;;;;;;2102266;68;20203;-77
2022/01/26 03:42:07;;;;;;;77.75;33.42;;;3.00;99.90;;;;;;2077086;68;20188;-77
2022/01/26 03:44:50;;;;;;;65.45;30.45;;;2.90;99.90;;;;;;2090596;68;20345;-78
2022/01/26 03:47:32;;;;;;;79.78;32.03;;;3.00;99.90;;;;;;2105672;67;20329;-78
2022/01/26 03:50:14;;;;;;;79.15;33.08;;;3.00;99.90;;;;;;2115956;67;20173;-77
2022/01/26 03:52:58;;;;;;;80.35;31.88;;;3.00;99.90;;;;;;2123454;67;20397;-77
2022/01/26 03:55:40;;;;;;;79.60;33.20;;;3.00;99.90;;;;;;2126827;67;20346;-78
2022/01/26 03:58:23;;;;;;;64.40;30.27;;;3.00;99.90;;;;;;2126045;67;20759;-79
2022/01/26 04:01:08;;;;;;;61.45;28.27;;;3.00;99.90;;;;;;2123581;67;20442;-77
2022/01/26 04:03:50;;;;;;;66.55;28.80;;;3.10;99.90;;;;;;2133886;67;20187;-78
2022/01/26 04:06:34;;;;;;;72.38;30.23;;;3.00;99.90;;;;;;2132313;67;20195;-77
2022/01/26 04:09:18;;;;;;;78.97;29.88;;;2.90;99.90;;;;;;2117976;67;20275;-79
2022/01/26 04:12:00;;;;;;;63.40;27.80;;;3.00;99.90;;;;;;2122493;67;20231;-78
2022/01/26 04:14:46;;;;;;;63.03;27.58;;;2.90;99.90;;;;;;2126149;67;20301;-78
2022/01/26 04:17:23;;;;;;;68.90;29.67;;;2.90;99.90;;;;;;2125705;67;20277;-75
2022/01/26 04:20:00;;;;;;;62.65;27.08;;;2.90;99.90;;;;;;2127023;67;20275;-78
2022/01/26 04:23:05;;;;;;;59.35;28.48;;;2.90;99.90;;;;;;2103090;67;20799;-78
2022/01/26 04:25:59;;;;;;;62.65;25.98;;;2.90;99.90;;;;;;2101778;68;20627;-78
2022/01/26 04:28:48;;;;;;;63.03;27.10;;;2.90;99.90;;;;;;2099333;67;20739;-77
2022/01/26 04:31:24;;;;;;;60.58;27.15;;;2.80;99.90;;;;;;2108051;67;20210;-77
2022/01/26 04:34:14;;;;;;;62.97;28.25;;;2.80;99.90;;;;;;1909980;67;15105138;-79
2022/01/26 04:36:56;;;;;;;62.40;27.95;;;2.80;99.90;;;;;;2140946;66;20177;-77
2022/01/26 04:39:50;;;;;;;65.28;27.88;;;2.80;99.90;;;;;;2148976;66;20362;-77
2022/01/26 04:43:04;;;;;;;59.13;26.38;;;2.80;99.90;;;;;;2168702;65;20293;-77
2022/01/26 04:45:29;;;;;;;67.20;27.20;;;2.90;99.90;;;;;;2189522;65;20632;-76
2022/01/26 04:48:07;;;;;;;50.92;22.17;;;2.80;99.90;;;;;;2193298;65;20258;-78
2022/01/26 04:50:50;;;;;;;56.75;26.65;;;2.80;99.90;;;;;;2195675;65;20271;-78
2022/01/26 04:53:27;;;;;;;59.55;25.45;;;2.80;99.90;;;;;;2243680;63;20317;-79
2022/01/26 04:56:07;;;;;;;63.05;27.38;;;2.80;99.90;;;;;;2244688;63;20209;-78
2022/01/26 04:58:44;;;;;;;58.17;24.38;;;2.70;99.90;;;;;;2246113;63;20153;-77
2022/01/26 05:01:23;;;;;;;54.50;25.73;;;2.80;99.90;;;;;;2242995;63;20214;-77
2022/01/26 05:04:01;;;;;;;54.42;24.67;;;2.80;99.90;;;;;;2245725;63;20780;-77
2022/01/26 05:06:40;;;;;;;57.83;25.00;;;2.80;99.90;;;;;;2240688;63;20177;-77
2022/01/26 05:09:19;;;;;;;62.40;26.33;;;2.80;99.90;;;;;;2242675;63;20319;-78
2022/01/26 05:12:12;;;;;;;52.45;22.75;;;2.70;99.90;;;;;;2235728;63;20170;-78
2022/01/26 05:14:45;;;;;;;54.70;24.95;;;2.70;99.90;;;;;;2236886;64;20289;-78
2022/01/26 05:17:23;;;;;;;55.65;25.23;;;2.70;99.90;;;;;;2237090;64;20189;-77
2022/01/26 05:20:09;;;;;;;58.15;25.33;;;2.70;99.90;;;;;;2221958;64;20218;-78
2022/01/26 05:22:51;;;;;;;53.00;22.15;;;2.30;99.90;;;;;;2214883;64;20276;-79
2022/01/26 05:25:34;;;;;;;54.55;23.42;;;2.70;99.90;;;;;;2212899;64;20679;-78
2022/01/26 05:28:18;;;;;;;;;;;3.20;99.90;;;;;;2214111;64;20669;-78
2022/01/26 05:31:00;;;;;;;52.78;21.60;;;2.60;99.90;;;;;;2197034;65;20093;-78
2022/01/26 05:33:42;;;;;;;56.97;24.25;;;2.70;99.90;;;;;;2184535;65;20201;-77
2022/01/26 05:36:24;;;;;;;61.17;23.95;;;2.70;99.90;;;;;;2176734;65;20351;-78
2022/01/26 05:39:07;;;;;;;56.80;24.63;;;2.70;99.90;;;;;;2167101;65;20333;-78
2022/01/26 05:41:50;;;;;;;52.47;21.63;;;2.70;99.90;;;;;;2163203;66;20193;-79
2022/01/26 05:44:36;;;;;;;52.45;23.75;;;2.70;99.90;;;;;;2146487;66;20170;-76
2022/01/26 05:47:21;;;;;;;;;;;2.70;99.90;;;;;;2136549;67;20202;-77
2022/01/26 05:50:03;;;;;;;51.35;22.20;;;2.70;99.90;;;;;;2139550;66;20068;-79
2022/01/26 05:52:45;;;;;;;51.90;22.77;;;2.60;99.90;;;;;;2141109;66;20454;-78
2022/01/26 05:55:27;;;;;;;53.10;21.55;;;2.70;99.90;;;;;;2132614;66;20792;-78
2022/01/26 05:58:09;;;;;;;47.75;20.67;;;2.70;99.90;;;;;;2139118;67;20272;-77
2022/01/26 06:00:52;;;;;;;54.33;21.45;;;2.60;99.90;;;;;;2135526;66;20651;-77
2022/01/26 06:03:40;;;;;;;53.90;23.67;;;2.70;99.90;;;;;;2139102;67;20331;-78
2022/01/26 06:06:23;;;;;;;55.67;24.10;;;2.60;99.90;;;;;;2131904;67;20909;-78
2022/01/26 06:09:07;;;;;;;49.45;23.35;;;2.70;99.90;;;;;;2139359;66;20251;-78
2022/01/26 06:11:49;;;;;;;55.25;25.33;;;2.70;99.90;;;;;;2131929;67;20187;-78
2022/01/26 06:14:32;;;;;;;53.45;21.27;;;2.70;99.90;;;;;;2131957;67;20888;-79
2022/01/26 06:17:13;;;;;;;58.65;23.67;;;2.60;99.90;;;;;;2139144;66;20660;-77
2022/01/26 06:19:55;;;;;;;49.42;21.80;;;2.60;99.90;;;;;;2139062;66;20171;-77
2022/01/26 06:22:38;;;;;;;54.65;23.20;;;2.70;99.90;;;;;;2132404;67;20258;-76
2022/01/26 06:25:20;;;;;;;57.42;24.55;;;2.70;99.90;;;;;;2131221;67;20250;-78
2022/01/26 06:28:07;;;;;;;57.40;24.33;;;2.70;99.90;;;;;;2121483;67;20589;-76
2022/01/26 06:30:55;;;;;;;50.00;22.35;;;2.70;99.90;;;;;;2115392;67;20785;-77
2022/01/26 06:33:39;;;;;;;60.53;24.50;;;2.70;99.90;;;;;;2120811;67;20193;-77
2022/01/26 06:36:20;;;;;;;58.58;24.90;;;2.70;99.90;;;;;;2106069;67;20635;-75
2022/01/26 06:39:02;;;;;;;58.63;25.85;;;2.70;99.90;;;;;;2113599;67;20287;-76
2022/01/26 06:41:53;;;;;;;50.00;22.10;;;2.70;99.90;;;;;;2100913;68;20194;-80
2022/01/26 06:44:46;;;;;;;51.25;22.92;;;2.70;99.90;;;;;;2111950;67;20354;-83
2022/01/26 06:50:09;;;;;;;55.83;23.65;;;2.70;99.90;;;;;;2134751;66;20366;-76
2022/01/26 06:52:51;;;;;;;53.78;23.52;;;2.70;99.90;;;;;;2127068;67;21405;-77
2022/01/26 06:55:33;;;;;;;55.53;24.88;;;2.70;99.90;;;;;;2138318;66;20428;-77
2022/01/26 06:58:15;;;;;;;52.30;24.30;;;2.70;99.90;;;;;;2148646;66;20245;-77
2022/01/26 07:01:02;;;;;;;52.47;24.63;;;2.80;99.90;;;;;;2142109;66;20329;-76
2022/01/26 07:03:47;;;;;;;58.35;24.80;;;2.70;99.90;;;;;;2126255;67;20878;-76
2022/01/26 07:06:28;;;;;;;61.50;24.08;;;2.80;99.90;;;;;;2119562;67;20241;-76
2022/01/26 07:09:13;;;;;;;61.08;26.67;;;2.10;99.90;;;;;;2113005;67;20746;-76
2022/01/26 07:11:55;;;;;;;60.28;27.83;;;2.80;99.90;;;;;;2118480;67;20276;-76
2022/01/26 07:24:16;;;;;;;55.97;25.20;;;2.70;99.90;;;;;;2119925;67;20400;-76
2022/01/26 07:26:57;;;;;;;60.17;25.63;;;2.80;99.90;;;;;;2124985;67;20184;-77
2022/01/26 07:29:39;;;;;;;61.13;26.50;;;2.90;99.90;;;;;;2119886;67;20303;-77
2022/01/26 07:32:24;;;;;;;63.83;27.45;;;2.80;99.90;;;;;;2117223;67;20352;-77
2022/01/26 07:35:11;;;;;;;60.05;28.38;;;2.80;99.90;;;;;;2121278;67;20177;-76
2022/01/26 07:38:01;;;;;;;69.75;29.08;;;2.80;99.90;;;;;;2130177;67;20234;-76
2022/01/26 07:40:43;;;;;;;70.25;29.77;;;2.80;99.90;;;;;;2144552;66;20320;-76
2022/01/26 07:43:25;;;;;;;64.55;29.70;;;3.10;99.90;;;;;;2141330;66;20330;-75
2022/01/26 07:46:28;;;;;;;62.80;27.90;;;2.90;99.90;;;;;;2149007;66;20279;-76
2022/01/26 07:49:10;;;;;;;68.45;28.70;;;2.90;99.90;;;;;;2150669;66;20370;-76
2022/01/26 07:51:52;;;;;;;68.15;28.40;;;2.90;99.90;;;;;;2156589;66;20174;-75
2022/01/26 07:54:35;;;;;;;72.70;30.25;;;2.90;99.90;;;;;;2137408;66;20639;-77
2022/01/26 07:57:18;;;;;;;62.38;29.55;;;2.90;99.90;;;;;;2137518;66;20339;-75
2022/01/26 08:00:00;;;;;;;63.28;28.83;;;2.90;99.90;;;;;;2140928;66;20298;-76
2022/01/26 08:02:43;;;;;;;66.22;31.08;;;3.00;99.90;;;;;;2139112;66;20264;-76
2022/01/26 08:05:27;;;;;;;70.60;30.20;;;3.00;99.90;;;;;;2131926;67;20411;-76
2022/01/26 08:08:10;;;;;;;59.15;28.15;;;3.00;99.90;;;;;;2114656;67;20684;-77
2022/01/26 08:10:59;;;;;;;73.60;32.20;;;3.00;99.90;;;;;;2094198;68;20258;-76
2022/01/26 08:13:41;;;;;;;72.70;31.35;;;3.00;99.90;;;;;;2097012;68;20332;-76
2022/01/26 08:16:23;;;;;;;71.05;31.48;;;3.40;99.90;;;;;;2103436;67;20379;-76
2022/01/26 08:19:05;;;;;;;62.50;31.90;;;3.10;99.90;;;;;;2104789;67;20601;-76
2022/01/26 08:21:47;;;;;;;69.75;33.15;;;3.10;99.90;;;;;;2097365;67;20445;-76
2022/01/26 08:24:29;;;;;;;67.13;31.60;;;4.00;99.90;;;;;;2103017;67;20442;-76
2022/01/26 08:27:13;;;;;;;70.53;33.55;;;3.10;99.90;;;;;;2096613;67;20197;-77
2022/01/26 08:30:03;;;;;;;78.30;34.90;;;3.60;99.90;;;;;;2114720;67;20176;-76
2022/01/26 08:32:47;;;;;;;83.53;34.70;;;3.20;99.90;;;;;;2129429;67;20806;-76
2022/01/26 08:35:32;;;;;;;80.75;36.30;;;3.20;99.90;;;;;;2124233;67;20547;-77
2022/01/26 08:38:15;;;;;;;77.60;32.75;;;3.20;99.90;;;;;;2117221;67;20168;-77
2022/01/26 08:41:00;;;;;;;78.35;35.40;;;3.20;99.90;;;;;;2124082;67;20250;-77
2022/01/26 08:43:43;;;;;;;73.03;34.22;;;3.20;99.90;;;;;;2111188;67;20387;-76
2022/01/26 08:46:29;;;;;;;70.28;33.95;;;3.20;99.90;;;;;;2123540;67;20208;-76
2022/01/26 08:49:12;;;;;;;75.15;32.78;;;3.30;99.90;;;;;;2126509;67;20262;-77
2022/01/26 08:51:58;;;;;;;78.03;32.55;;;3.40;99.90;;;;;;2124750;67;20304;-77
2022/01/26 08:54:43;;;;;;;81.05;34.20;;;3.30;99.90;;;;;;2117701;67;20213;-76
2022/01/26 08:57:28;;;;;;;74.20;34.25;;;3.30;99.90;;;;;;2112307;67;20333;-76
2022/01/26 09:00:11;;;;;;;80.45;36.58;;;3.30;99.90;;;;;;2117424;67;20195;-77
2022/01/26 09:02:55;;;;;;;74.60;35.42;;;3.40;99.90;;;;;;2110307;67;20568;-77
2022/01/26 09:05:37;;;;;;;72.68;35.35;;;3.50;99.90;;;;;;2105296;67;20319;-77
2022/01/26 09:08:19;;;;;;;72.57;32.58;;;3.40;99.90;;;;;;2124968;67;20250;-76
2022/01/26 09:11:01;;;;;;;72.85;33.40;;;3.40;99.90;;;;;;2108271;67;20185;-77
2022/01/26 09:13:43;;;;;;;83.05;36.92;;;3.40;99.90;;;;;;2111311;67;20289;-76
2022/01/26 09:16:29;;;;;;;73.18;35.08;;;3.40;99.90;;;;;;2113294;67;20304;-76
2022/01/26 09:19:49;;;;;;;79.55;37.08;;;3.40;99.90;;;;;;2116805;67;20239;-76
2022/01/26 09:22:22;;;;;;;73.80;35.00;;;3.50;99.90;;;;;;2140945;66;20756;-76
2022/01/26 09:25:08;;;;;;;82.13;35.53;;;3.50;99.90;;;;;;2130330;67;20309;-78
2022/01/26 09:27:50;;;;;;;;;;;3.50;99.90;;;;;;2118270;67;20496;-77
2022/01/26 09:30:32;;;;;;;65.97;33.35;;;3.50;99.90;;;;;;2118973;67;20206;-76
2022/01/26 09:33:14;;;;;;;79.68;36.00;;;3.60;99.90;;;;;;2102730;67;20350;-78
2022/01/26 09:35:57;;;;;;;69.43;34.40;;;3.60;99.90;;;;;;2100387;67;20198;-76
2022/01/26 09:38:39;;;;;;;79.38;35.50;;;3.60;99.90;;;;;;2097233;67;22574;-78
2022/01/26 09:41:23;;;;;;;82.20;34.10;;;3.70;99.90;;;;;;2105903;67;20443;-78
2022/01/26 09:44:06;;;;;;;67.97;33.50;;;3.70;99.90;;;;;;2097315;67;20382;-79
2022/01/26 09:46:49;;;;;;;67.28;32.58;;;3.80;99.90;;;;;;2097904;67;20182;-78
2022/01/26 09:49:34;;;;;;;66.18;31.40;;;3.80;99.90;;;;;;2112163;67;21173;-78
2022/01/26 09:52:25;;;;;;;69.60;31.77;;;3.80;99.90;;;;;;2130494;67;20754;-77
2022/01/26 09:55:09;;;;;;;64.15;33.58;;;3.00;99.90;;;;;;2131235;67;20595;-78
2022/01/26 09:57:57;;;;;;;61.28;30.55;;;4.00;99.90;;;;;;2133900;66;20399;-77
2022/01/26 10:00:40;;;;;;;70.95;30.88;;;4.00;99.90;;;;;;2131074;67;20719;-78
2022/01/26 10:03:33;;;;;;;59.78;28.83;;;4.50;99.90;;;;;;2122651;67;20274;-79
2022/01/26 10:06:28;;;;;;;52.90;26.30;;;4.00;99.90;;;;;;2109339;67;20278;-77
2022/01/26 10:15:31;;;;;;;62.28;28.48;;;4.70;99.90;;;;;;2112446;67;20185;-77
2022/01/26 10:18:31;;;;;;;64.68;29.65;;;4.20;99.90;;;;;;2109591;67;20258;-77
2022/01/26 10:21:26;;;;;;;65.50;28.90;;;4.20;99.90;;;;;;2113574;67;20827;-78
2022/01/26 10:24:12;;;;;;;58.97;29.38;;;4.20;99.90;;;;;;2110618;67;20358;-77
2022/01/26 10:27:01;;;;;;;58.25;27.60;;;4.20;99.90;;;;;;2110593;67;20369;-79
2022/01/26 10:29:46;;;;;;;53.80;26.88;;;4.20;99.90;;;;;;2121902;67;20207;-78
2022/01/26 10:32:35;;;;;;;62.47;28.08;;;4.30;99.90;;;;;;2130660;67;20290;-77
2022/01/26 10:35:16;;;;;;;57.22;26.08;;;4.30;99.90;;;;;;2125058;67;20772;-78
2022/01/26 10:37:58;;;;;;;54.22;26.75;;;4.30;99.90;;;;;;2122052;67;20176;-78
2022/01/26 10:40:40;;;;;;;50.88;26.80;;;4.30;99.90;;;;;;2129747;66;20229;-79
2022/01/26 10:43:22;;;;;;;50.70;25.50;;;4.40;99.90;;;;;;2130938;66;20346;-78
2022/01/26 10:46:07;;;;;;;44.80;23.15;;;4.40;99.90;;;;;;2139051;66;20236;-79
2022/01/26 10:49:07;;;;;;;48.70;23.25;;;4.40;99.90;;;;;;2133435;66;20260;-79
2022/01/26 10:51:56;;;;;;;50.40;23.92;;;4.50;99.90;;;;;;2137366;66;20175;-77
2022/01/26 10:54:41;;;;;;;49.97;25.58;;;4.50;99.90;;;;;;2144137;66;20293;-77
2022/01/26 10:57:25;;;;;;;53.88;25.42;;;4.50;99.90;;;;;;2142599;66;20774;-77
2022/01/26 11:00:10;;;;;;;48.17;24.65;;;4.50;99.90;;;;;;2146768;66;20804;-79
2022/01/26 11:02:57;;;;;;;45.93;24.17;;;4.50;99.90;;;;;;2138941;66;20175;-79
2022/01/26 11:05:40;;;;;;;51.25;22.75;;;4.50;99.90;;;;;;2138754;66;20254;-75
2022/01/26 11:08:27;;;;;;;52.75;24.35;;;4.50;99.90;;;;;;2129787;67;20164;-77
2022/01/26 11:11:25;;;;;;;51.13;24.35;;;4.40;99.90;;;;;;2132932;67;20220;-75
2022/01/26 11:14:21;;;;;;;48.50;25.33;;;4.40;99.90;;;;;;2129536;67;20251;-76
2022/01/26 11:17:04;;;;;;;56.97;26.30;;;4.40;99.90;;;;;;2115257;67;20301;-76
2022/01/26 11:19:47;;;;;;;53.55;26.10;;;4.40;99.90;;;;;;2131559;66;20171;-76
2022/01/26 11:22:31;;;;;;;56.72;24.20;;;4.30;99.90;;;;;;2125328;67;20250;-76
2022/01/26 11:25:12;;;;;;;52.28;25.92;;;4.70;99.90;;;;;;2119988;67;20342;-76
2022/01/26 11:27:56;;;;;;;55.45;24.67;;;4.30;99.90;;;;;;2127269;67;20297;-77
2022/01/26 11:30:38;;;;;;;56.65;25.60;;;4.40;99.90;;;;;;2135927;66;20295;-78
2022/01/26 11:33:24;;;;;;;53.75;25.38;;;4.40;99.90;;;;;;2136870;66;20864;-80
2022/01/26 11:36:07;;;;;;;54.22;24.45;;;4.30;99.90;;;;;;2140814;66;20186;-75
2022/01/26 11:48:01;;;;;;;50.38;26.00;;;4.50;99.90;;;;;;2132300;67;20420;-78
2022/01/26 11:50:44;;;;;;;53.95;23.67;;;4.60;99.90;;;;;;2129341;67;20353;-77
2022/01/26 11:53:28;;;;;;;60.55;27.02;;;4.50;99.90;;;;;;2133045;66;20673;-75
2022/01/26 11:56:19;;;;;;;55.28;26.63;;;4.50;99.90;;;;;;2136626;66;20374;-76
2022/01/26 11:59:01;;;;;;;51.80;24.30;;;4.50;99.90;;;;;;2125615;67;20317;-78
2022/01/26 12:01:45;;;;;;;58.45;27.52;;;4.50;99.90;;;;;;2133950;67;20823;-78
2022/01/26 12:04:27;;;;;;;55.15;26.25;;;4.40;99.90;;;;;;2133193;66;20280;-77
2022/01/26 12:07:19;;;;;;;53.30;26.17;;;4.50;99.90;;;;;;2139053;66;20332;-77
2022/01/26 12:10:04;;;;;;;57.58;26.80;;;4.50;99.90;;;;;;2145238;66;20283;-80
2022/01/26 12:13:04;;;;;;;64.50;27.13;;;4.50;99.90;;;;;;2132099;67;20380;-77
2022/01/26 12:15:54;;;;;;;60.63;27.95;;;4.40;99.90;;;;;;2124457;67;20277;-76
2022/01/26 12:18:44;;;;;;;67.68;28.27;;;4.60;99.90;;;;;;2133795;66;20391;-77
2022/01/26 12:43:11;;;;;;;57.13;23.77;;;4.50;99.90;;;;;;2164981;66;20236;-77
2022/01/26 12:45:56;;;;;;;59.03;25.73;;;4.50;99.90;;;;;;2171093;65;20239;-78
2022/01/26 12:48:47;;;;;;;61.60;28.35;;;4.50;99.90;;;;;;2162120;66;20778;-77
2022/01/26 12:51:29;;;;;;;53.65;24.60;;;4.50;99.90;;;;;;2164120;66;20225;-78
2022/01/26 12:54:11;;;;;;;61.63;25.95;;;4.60;99.90;;;;;;2154974;66;20302;-80
2022/01/26 12:57:03;;;;;;;56.95;28.63;;;4.50;99.90;;;;;;2148445;66;20371;-78
2022/01/26 12:59:45;;;;;;;64.22;29.23;;;4.60;99.90;;;;;;2147749;66;20179;-79
2022/01/26 13:02:28;;;;;;;60.25;29.30;;;4.60;99.90;;;;;;2127741;67;20251;-78
2022/01/26 13:05:14;;;;;;;58.20;28.63;;;4.60;99.90;;;;;;2125796;67;20259;-80
2022/01/26 13:08:19;;;;;;;57.35;28.38;;;4.80;99.90;;;;;;2122918;67;20396;-80
2022/01/26 13:11:23;;;;;;;55.28;26.75;;;4.70;99.90;;;;;;2116321;67;20189;-79
2022/01/26 13:14:20;;;;;;;56.53;24.92;;;4.80;99.90;;;;;;2095693;68;20755;-79
2022/01/26 13:26:07;;;;;;;55.55;25.60;;;4.90;99.90;;;;;;2083872;68;20239;-78
2022/01/26 13:29:16;;;;;;;55.75;25.50;;;5.00;99.90;;;;;;2103620;67;20485;-78
2022/01/26 13:32:16;;;;;;;49.78;22.35;;;4.90;99.90;;;;;;2098216;68;20166;-77
2022/01/26 13:35:15;;;;;;;53.13;26.05;;;4.90;99.90;;;;;;2092843;68;20661;-77
2022/01/26 13:41:05;;;;;;;46.92;23.25;;;5.10;99.90;;;;;;2098246;67;20767;-81
2022/01/26 13:53:10;;;;;;;48.78;23.35;;;5.10;99.90;;;;;;2125402;67;20172;-77
2022/01/26 13:56:07;;;;;;;47.67;22.75;;;5.20;99.90;;;;;;2145970;66;20292;-79
2022/01/26 13:59:02;;;;;;;44.90;22.65;;;5.30;99.90;;;;;;2146088;66;20836;-78
2022/01/26 14:01:50;;;;;;;45.85;22.02;;;5.30;99.90;;;;;;2132996;67;20196;-77
2022/01/26 14:04:33;;;;;;;44.70;21.58;;;5.40;99.90;;;;;;2121070;67;20859;-79
2022/01/26 14:07:18;;;;;;;40.10;21.42;;;5.40;99.90;;;;;;2123874;67;20249;-82
2022/01/26 14:10:01;;;;;;;44.10;22.33;;;5.50;99.90;;;;;;2126671;67;20627;-75
2022/01/26 14:12:48;;;;;;;40.85;19.52;;;5.70;99.90;;;;;;2145199;66;20439;-77
2022/01/26 14:15:44;;;;;;;40.50;21.13;;;5.50;99.90;;;;;;2128338;67;20336;-76
2022/01/26 14:26:32;;;;;;;44.05;21.80;;;5.50;99.90;;;;;;2116538;67;20201;-77
2022/01/26 14:29:22;;;;;;;48.42;22.52;;;5.60;99.90;;;;;;2122122;67;20332;-77
2022/01/26 14:35:14;;;;;;;43.22;21.92;;;5.60;99.90;;;;;;2121415;67;20383;-76
2022/01/26 15:33:30;;;;;;;47.80;22.77;;;5.50;99.90;;;;;;2231060;64;20288;-76
2022/01/26 15:42:52;;;;;;;49.65;23.63;;;5.50;99.90;;;;;;2198229;65;20209;-76
2022/01/26 16:06:00;;;;;;;52.53;22.92;;;5.60;99.90;;;;;;2146654;66;20209;-78
2022/01/26 16:36:07;;;;;;;44.47;21.73;;;5.50;99.90;;;;;;2167647;66;20283;-80
2022/01/26 18:04:13;;;;;;;35.22;18.13;;;5.70;99.90;;;;;;2100290;67;20258;-77
2022/01/26 18:40:36;;;;;;;37.00;16.88;;;5.90;99.90;;;;;;2098801;67;20222;-75
2022/01/26 18:49:18;;;;;;;30.27;15.95;;;6.20;99.90;;;;;;2123153;67;20187;-78
2022/01/26 18:51:55;;;;;;;33.90;16.02;;;6.00;99.90;;;;;;2137775;67;20205;-77
2022/01/26 18:54:46;;;;;;;30.75;16.42;;;6.00;99.90;;;;;;2138280;66;20242;-79
2022/01/26 18:57:23;;;;;;;27.10;14.57;;;6.00;99.90;;;;;;2143283;66;20362;-77
2022/01/26 19:00:07;;;;;;;31.13;16.80;;;7.00;99.90;;;;;;2151016;66;20439;-76
2022/01/26 19:03:04;;;;;;;28.83;14.10;;;6.00;99.90;;;;;;2147925;66;20264;-76
2022/01/26 19:05:48;;;;;;;34.05;16.70;;;6.00;99.90;;;;;;2163294;65;20408;-76
2022/01/26 19:08:27;;;;;;;30.27;16.08;;;6.00;99.90;;;;;;2173639;65;20421;-76
2022/01/26 19:11:04;;;;;;;29.17;15.50;;;6.80;99.90;;;;;;2186577;65;21299;-76
2022/01/26 19:13:43;;;;;;;36.40;16.38;;;6.10;99.90;;;;;;2214379;64;20179;-77
2022/01/26 19:24:59;;;;;;;25.65;15.00;;;6.20;99.90;;;;;;2203750;64;20192;-77
2022/01/26 19:39:58;;;;;;;27.10;14.77;;;6.20;99.90;;;;;;2210111;64;20276;-76
2022/01/26 19:53:21;;;;;;;25.67;14.50;;;6.20;99.90;;;;;;2220492;64;20191;-76
2022/01/26 19:56:00;;;;;;;32.85;15.05;;;6.20;99.90;;;;;;2220399;64;20163;-78
2022/01/26 19:58:36;;;;;;;27.52;15.27;;;6.20;99.90;;;;;;2242656;63;20863;-78
2022/01/26 20:01:13;;;;;;;30.70;17.05;;;6.50;99.90;;;;;;2244730;63;20780;-79
2022/01/26 20:03:54;;;;;;;32.28;17.05;;;6.20;99.90;;;;;;2244282;63;20165;-77
2022/01/26 20:06:43;;;;;;;28.90;16.00;;;6.20;99.90;;;;;;2243890;63;22886;-78
2022/01/26 20:09:30;;;;;;;33.58;17.75;;;6.20;99.90;;;;;;2244571;63;20559;-79
2022/01/26 20:12:19;;;;;;;33.47;17.25;;;6.30;99.90;;;;;;2244709;63;20373;-79
2022/01/26 20:14:57;;;;;;;32.33;16.38;;;6.30;99.90;;;;;;2244764;63;20234;-79
2022/01/26 20:17:53;;;;;;;30.48;16.35;;;6.30;99.90;;;;;;2226661;64;20315;-80
2022/01/26 20:20:48;;;;;;;33.95;17.10;;;6.80;99.90;;;;;;2226996;64;20783;-80
2022/01/26 20:23:34;;;;;;;31.05;17.30;;;6.10;99.90;;;;;;2226461;64;20701;-76
2022/01/26 20:26:12;;;;;;;30.08;16.60;;;6.30;99.90;;;;;;2225306;64;20186;-79
2022/01/26 20:28:51;;;;;;;31.83;16.45;;;6.30;99.90;;;;;;2227415;64;20230;-79
2022/01/26 20:31:34;;;;;;;36.30;18.30;;;6.30;99.90;;;;;;2225037;64;20217;-77
2022/01/26 20:34:14;;;;;;;31.75;15.57;;;6.30;99.90;;;;;;2228844;64;20191;-79
2022/01/26 20:37:04;;;;;;;34.58;16.60;;;6.70;99.90;;;;;;2211693;64;20200;-79
2022/01/26 20:39:41;;;;;;;34.90;17.20;;;6.30;99.90;;;;;;2213170;64;20639;-79
2022/01/26 20:42:19;;;;;;;31.15;17.23;;;7.00;99.90;;;;;;2213120;64;20186;-80
2022/01/26 20:44:57;;;;;;;31.25;15.95;;;6.30;99.90;;;;;;2212968;64;20219;-80
2022/01/26 20:47:42;;;;;;;27.92;15.10;;;6.30;99.90;;;;;;2203835;65;20502;-80
2022/01/26 20:50:25;;;;;;;34.50;16.48;;;6.30;99.90;;;;;;2195823;65;20305;-80
2022/01/26 20:53:07;;;;;;;30.00;15.88;;;6.40;99.90;;;;;;2174609;65;20323;-78
2022/01/26 20:55:52;;;;;;;34.33;15.43;;;6.40;99.90;;;;;;2159984;66;20257;-80
2022/01/26 20:58:34;;;;;;;33.83;16.85;;;6.30;99.90;;;;;;2145339;66;20178;-79
2022/01/26 21:01:16;;;;;;;35.67;17.23;;;6.40;99.90;;;;;;2144830;66;20281;-79
2022/01/26 21:03:58;;;;;;;34.58;16.63;;;6.40;99.90;;;;;;2157899;66;20256;-81
2022/01/26 21:06:43;;;;;;;31.50;17.13;;;6.40;99.90;;;;;;2152388;66;20332;-80
2022/01/26 21:09:26;;;;;;;30.33;13.90;;;6.30;99.90;;;;;;2130916;67;22242;-80
2022/01/26 21:12:12;;;;;;;34.13;17.45;;;6.40;99.90;;;;;;2134629;66;20227;-81
2022/01/26 21:14:59;;;;;;;37.83;15.55;;;6.40;99.90;;;;;;2128061;67;20333;-80
2022/01/26 21:17:45;;;;;;;29.67;16.27;;;6.40;99.90;;;;;;2123395;67;20258;-80